createdAt,value
2024-03-07T00:00:31.292Z,101798.28
2024-03-07T00:02:58.324Z,101804.44
2024-03-07T00:05:26.389Z,101799.47
2024-03-07T00:07:54.169Z,101803.91
2024-03-07T00:10:22.740Z,101804.69
2024-03-07T00:12:49.956Z,101802.09
2024-03-07T00:15:17.366Z,101802.97
2024-03-07T00:17:44.740Z,101800.06
2024-03-07T00:20:21.304Z,101808.97
2024-03-07T00:22:50.708Z,101812.28
2024-03-07T00:25:21.652Z,101803.59
2024-03-07T00:27:48.866Z,101810.63
2024-03-07T00:30:20.062Z,101797.59
2024-03-07T00:32:48.987Z,101809.13
2024-03-07T00:35:16.248Z,101812.59
2024-03-07T00:37:43.711Z,101800.28
2024-03-07T00:40:11.971Z,101807.28
2024-03-07T00:42:39.057Z,101807.50
2024-03-07T00:45:06.667Z,101811.88
2024-03-07T00:47:33.831Z,101803.97
2024-03-07T00:50:01.549Z,101810.91
2024-03-07T00:52:28.552Z,101800.41
2024-03-07T00:54:55.704Z,101803.13
2024-03-07T00:57:22.589Z,101792.66
2024-03-07T00:59:50.393Z,101802.28
2024-03-07T01:02:18.669Z,101795.34
2024-03-07T01:04:45.919Z,101804.25
2024-03-07T01:07:12.894Z,101801.22
2024-03-07T01:09:39.743Z,101800.44
2024-03-07T01:12:07.333Z,101792.38
2024-03-07T01:14:34.304Z,101799.53
2024-03-07T01:17:01.289Z,101801.00
2024-03-07T01:19:28.207Z,101789.06
2024-03-07T01:21:55.215Z,101792.75
2024-03-07T01:24:22.262Z,101794.22
2024-03-07T01:26:49.609Z,101793.50
2024-03-07T01:29:17.147Z,101796.13
2024-03-07T01:31:44.512Z,101787.78
2024-03-07T01:34:11.688Z,101792.38
2024-03-07T01:36:38.884Z,101793.41
2024-03-07T01:39:06.493Z,101791.75
2024-03-07T01:41:35.997Z,101790.91
2024-03-07T01:44:03.231Z,101786.59
2024-03-07T01:46:31.230Z,101796.31
2024-03-07T01:48:59.333Z,101782.84
2024-03-07T01:51:26.399Z,101785.81
2024-03-07T01:53:53.868Z,101789.38
2024-03-07T01:56:21.220Z,101788.44
2024-03-07T01:58:48.973Z,101793.59
2024-03-07T02:01:16.955Z,101790.16
2024-03-07T02:03:44.423Z,101785.72
2024-03-07T02:06:13.479Z,101784.00
2024-03-07T02:08:41.033Z,101782.25
2024-03-07T02:11:09.585Z,101779.69
2024-03-07T02:13:36.579Z,101776.16
2024-03-07T02:16:03.586Z,101783.22
2024-03-07T02:18:30.644Z,101777.94
2024-03-07T02:20:57.636Z,101780.47
2024-03-07T02:23:24.549Z,101777.09
2024-03-07T02:25:51.465Z,101768.38
2024-03-07T02:28:18.333Z,101777.25
2024-03-07T02:30:47.021Z,101780.81
2024-03-07T02:33:14.026Z,101770.38
2024-03-07T02:35:41.135Z,101774.94
2024-03-07T02:38:08.146Z,101773.28
2024-03-07T02:40:35.217Z,101770.53
2024-03-07T02:43:04.875Z,101766.34
2024-03-07T02:45:32.211Z,101765.47
2024-03-07T02:47:59.198Z,101766.38
2024-03-07T02:50:26.433Z,101769.00
2024-03-07T02:52:54.274Z,101762.06
2024-03-07T02:55:21.902Z,101769.00
2024-03-07T02:57:51.371Z,101763.00
2024-03-07T03:00:21.943Z,101768.31
2024-03-07T03:02:49.786Z,101757.81
2024-03-07T03:05:17.341Z,101758.75
2024-03-07T03:07:54.515Z,101765.56
2024-03-07T03:10:28.242Z,101762.19
2024-03-07T03:12:56.710Z,101761.31
2024-03-07T03:15:23.623Z,101763.41
2024-03-07T03:17:50.635Z,101766.09
2024-03-07T03:20:26.968Z,101769.34
2024-03-07T03:23:10.537Z,101769.94
2024-03-07T03:25:42.971Z,101766.31
2024-03-07T03:28:13.588Z,101773.09
2024-03-07T03:30:42.875Z,101772.88
2024-03-07T03:33:10.441Z,101774.66
2024-03-07T03:35:41.404Z,101776.78
2024-03-07T03:38:09.233Z,101781.34
2024-03-07T03:40:36.645Z,101778.91
2024-03-07T03:43:03.949Z,101781.78
2024-03-07T03:45:30.906Z,101786.63
2024-03-07T03:47:59.059Z,101786.97
2024-03-07T03:50:26.210Z,101784.00
2024-03-07T03:52:53.697Z,101780.22
2024-03-07T03:55:22.190Z,101789.84
2024-03-07T03:57:50.584Z,101780.22
2024-03-07T04:00:18.340Z,101782.88
2024-03-07T04:02:50.302Z,101785.41
2024-03-07T04:05:20.755Z,101789.88
2024-03-07T04:07:47.894Z,101794.31
2024-03-07T04:10:16.745Z,101789.06
2024-03-07T04:12:43.703Z,101793.47
2024-03-07T04:15:12.669Z,101793.56
2024-03-07T04:17:39.896Z,101793.66
2024-03-07T04:20:08.206Z,101795.50
2024-03-07T04:22:35.831Z,101797.31
2024-03-07T04:25:03.348Z,101791.19
2024-03-07T04:27:30.584Z,101791.56
2024-03-07T04:29:57.750Z,101792.38
2024-03-07T04:32:25.018Z,101789.34
2024-03-07T04:34:52.411Z,101797.69
2024-03-07T04:37:19.350Z,101794.03
2024-03-07T04:39:47.218Z,101801.91
2024-03-07T04:42:14.214Z,101799.19
2024-03-07T04:44:41.443Z,101800.53
2024-03-07T04:47:08.899Z,101808.69
2024-03-07T04:49:36.108Z,101798.91
2024-03-07T04:52:04.383Z,101811.72
2024-03-07T04:54:33.363Z,101804.94
2024-03-07T04:57:00.446Z,101807.69
2024-03-07T04:59:27.439Z,101805.97
2024-03-07T05:01:54.354Z,101805.91
2024-03-07T05:04:21.250Z,101805.28
2024-03-07T05:06:51.107Z,101799.25
2024-03-07T05:09:27.548Z,101806.09
2024-03-07T05:11:55.297Z,101811.59
2024-03-07T05:14:23.508Z,101806.31
2024-03-07T05:17:06.433Z,101814.22
2024-03-07T05:19:34.697Z,101816.84
2024-03-07T05:22:02.192Z,101822.09
2024-03-07T05:24:29.036Z,101827.22
2024-03-07T05:26:56.209Z,101816.97
2024-03-07T05:29:23.831Z,101827.38
2024-03-07T05:31:50.777Z,101831.03
2024-03-07T05:34:20.590Z,101825.66
2024-03-07T05:36:48.391Z,101825.84
2024-03-07T05:39:16.648Z,101825.97
2024-03-07T05:41:46.401Z,101833.63
2024-03-07T05:44:13.782Z,101828.38
2024-03-07T05:46:48.100Z,101836.31
2024-03-07T05:49:15.872Z,101837.31
2024-03-07T05:51:43.665Z,101836.44
2024-03-07T05:54:10.632Z,101839.09
2024-03-07T05:56:38.106Z,101841.81
2024-03-07T05:59:05.721Z,101847.75
2024-03-07T06:01:35.688Z,101843.44
2024-03-07T06:04:03.680Z,101842.53
2024-03-07T06:06:33.220Z,101853.22
2024-03-07T06:09:02.371Z,101850.44
2024-03-07T06:11:29.453Z,101850.47
2024-03-07T06:13:56.489Z,101857.56
2024-03-07T06:16:23.462Z,101848.66
2024-03-07T06:18:50.376Z,101850.50
2024-03-07T06:21:17.422Z,101866.28
2024-03-07T06:23:44.656Z,101863.63
2024-03-07T06:26:18.266Z,101870.56
2024-03-07T06:28:46.696Z,101867.13
2024-03-07T06:31:13.668Z,101863.72
2024-03-07T06:33:40.669Z,101864.66
2024-03-07T06:36:07.832Z,101875.03
2024-03-07T06:38:34.793Z,101864.63
2024-03-07T06:41:01.736Z,101866.34
2024-03-07T06:43:28.562Z,101869.88
2024-03-07T06:45:56.091Z,101875.03
2024-03-07T06:48:23.376Z,101875.94
2024-03-07T06:50:50.555Z,101873.34
2024-03-07T06:53:18.320Z,101875.13
2024-03-07T06:55:45.516Z,101873.34
2024-03-07T06:58:12.640Z,101875.09
2024-03-07T07:00:41.694Z,101877.69
2024-03-07T07:03:08.961Z,101889.00
2024-03-07T07:05:36.273Z,101887.25
2024-03-07T07:08:03.705Z,101877.63
2024-03-07T07:10:31.226Z,101885.38
2024-03-07T07:12:58.296Z,101882.88
2024-03-07T07:15:25.431Z,101887.19
2024-03-07T07:17:52.562Z,101886.38
2024-03-07T07:20:20.331Z,101892.47
2024-03-07T07:22:48.662Z,101888.91
2024-03-07T07:25:15.836Z,101893.31
2024-03-07T07:27:50.519Z,101887.25
2024-03-07T07:30:25.031Z,101894.13
2024-03-07T07:32:53.142Z,101886.06
2024-03-07T07:35:20.616Z,101888.72
2024-03-07T07:37:49.552Z,101890.59
2024-03-07T07:40:19.683Z,101881.78
2024-03-07T07:42:47.990Z,101887.88
2024-03-07T07:45:17.258Z,101888.41
2024-03-07T07:47:54.776Z,101889.84
2024-03-07T07:50:23.931Z,101888.31
2024-03-07T07:52:51.803Z,101893.31
2024-03-07T07:55:19.232Z,101886.09
2024-03-07T07:57:47.736Z,101884.25
2024-03-07T08:00:25.223Z,101888.44
2024-03-07T08:03:03.252Z,101880.47
2024-03-07T08:05:32.970Z,101879.34
2024-03-07T08:08:03.761Z,101879.00
2024-03-07T08:10:30.967Z,101882.38
2024-03-07T08:13:02.826Z,101884.00
2024-03-07T08:15:30.988Z,101884.31
2024-03-07T08:17:58.986Z,101889.41
2024-03-07T08:20:27.215Z,101889.88
2024-03-07T08:22:56.563Z,101880.91
2024-03-07T08:25:25.469Z,101880.75
2024-03-07T08:27:54.254Z,101883.19
2024-03-07T08:30:21.369Z,101885.97
2024-03-07T08:32:51.025Z,101895.59
2024-03-07T08:35:17.970Z,101892.63
2024-03-07T08:37:46.828Z,101898.22
2024-03-07T08:40:26.392Z,101891.25
2024-03-07T08:42:55.740Z,101894.56
2024-03-07T08:45:23.045Z,101893.44
2024-03-07T08:47:51.946Z,101900.25
2024-03-07T08:50:19.487Z,101888.78
2024-03-07T08:52:49.346Z,101892.13
2024-03-07T08:55:18.133Z,101899.00
2024-03-07T08:57:47.366Z,101894.41
2024-03-07T09:00:24.136Z,101894.97
2024-03-07T09:02:53.784Z,101893.31
2024-03-07T09:05:24.811Z,101894.88
2024-03-07T09:07:53.300Z,101890.47
2024-03-07T09:10:20.835Z,101887.66
2024-03-07T09:12:51.518Z,101891.91
2024-03-07T09:15:19.258Z,101887.09
2024-03-07T09:17:47.253Z,101885.59
2024-03-07T09:20:17.455Z,101886.34
2024-03-07T09:22:45.681Z,101886.69
2024-03-07T09:25:14.695Z,101887.41
2024-03-07T09:27:42.381Z,101878.59
2024-03-07T09:30:13.516Z,101878.38
2024-03-07T09:32:41.988Z,101884.31
2024-03-07T09:35:13.544Z,101875.41
2024-03-07T09:37:41.893Z,101879.69
2024-03-07T09:40:13.810Z,101877.03
2024-03-07T09:42:56.188Z,101877.97
2024-03-07T09:45:24.698Z,101890.13
2024-03-07T09:47:53.961Z,101883.19
2024-03-07T09:50:24.007Z,101882.13
2024-03-07T09:52:55.237Z,101882.00
2024-03-07T09:55:26.819Z,101878.38
2024-03-07T09:57:57.780Z,101877.53
2024-03-07T10:00:29.557Z,101870.28
2024-03-07T10:03:00.963Z,101877.03
2024-03-07T10:05:28.977Z,101876.78
2024-03-07T10:07:56.938Z,101873.47
2024-03-07T10:10:24.675Z,101876.44
2024-03-07T10:12:54.713Z,101874.84
2024-03-07T10:15:22.894Z,101876.66
2024-03-07T10:17:51.775Z,101867.97
2024-03-07T10:20:22.098Z,101865.59
2024-03-07T10:22:51.880Z,101868.19
2024-03-07T10:25:20.671Z,101862.97
2024-03-07T10:27:50.517Z,101858.94
2024-03-07T10:30:22.558Z,101856.03
2024-03-07T10:32:54.597Z,101854.06
2024-03-07T10:35:27.911Z,101860.72
2024-03-07T10:37:55.813Z,101855.41
2024-03-07T10:40:23.966Z,101857.09
2024-03-07T10:42:55.811Z,101854.31
2024-03-07T10:45:23.075Z,101845.19
2024-03-07T10:48:02.692Z,101843.91
2024-03-07T10:50:48.939Z,101846.56
2024-03-07T10:53:43.900Z,101833.81
2024-03-07T10:56:35.394Z,101831.78
2024-03-07T10:59:16.500Z,101834.13
2024-03-07T11:01:53.164Z,101833.69
2024-03-07T11:04:24.088Z,101825.78
2024-03-07T11:06:51.188Z,101828.75
2024-03-07T11:09:24.424Z,101823.28
2024-03-07T11:11:51.729Z,101826.50
2024-03-07T11:14:19.081Z,101826.31
2024-03-07T11:16:46.443Z,101821.25
2024-03-07T11:19:22.522Z,101820.00
2024-03-07T11:21:49.753Z,101823.28
2024-03-07T11:24:26.883Z,101814.28
2024-03-07T11:26:55.298Z,101807.25
2024-03-07T11:29:44.793Z,101809.25
2024-03-07T11:32:13.351Z,101801.91
2024-03-07T11:34:42.797Z,101804.84
2024-03-07T11:37:18.858Z,101792.16
2024-03-07T11:39:51.683Z,101793.38
2024-03-07T11:42:27.064Z,101789.56
2024-03-07T11:44:58.229Z,101788.81
2024-03-07T11:47:37.305Z,101783.78
2024-03-07T11:50:13.462Z,101782.38
2024-03-07T11:52:45.887Z,101780.34
2024-03-07T11:55:13.515Z,101777.72
2024-03-07T11:57:42.008Z,101782.75
2024-03-07T12:00:12.103Z,101778.72
2024-03-07T12:02:44.960Z,101782.09
2024-03-07T12:05:11.968Z,101779.28
2024-03-07T12:07:39.693Z,101773.72
2024-03-07T12:10:08.202Z,101774.41
2024-03-07T12:12:35.401Z,101770.03
2024-03-07T12:15:10.251Z,101769.53
2024-03-07T12:17:37.338Z,101774.63
2024-03-07T12:20:25.061Z,101763.69
2024-03-07T12:22:54.478Z,101764.28
2024-03-07T12:25:23.177Z,101759.41
2024-03-07T12:28:07.221Z,101762.25
2024-03-07T12:30:35.726Z,101758.50
2024-03-07T12:33:05.901Z,101749.88
2024-03-07T12:35:33.614Z,101754.09
2024-03-07T12:38:01.132Z,101749.56
2024-03-07T12:40:31.109Z,101741.63
2024-03-07T12:42:58.054Z,101744.16
2024-03-07T12:45:25.013Z,101755.72
2024-03-07T12:47:55.913Z,101749.75
2024-03-07T12:50:23.038Z,101745.63
2024-03-07T12:52:53.789Z,101740.97
2024-03-07T12:55:22.767Z,101734.91
2024-03-07T12:57:51.436Z,101734.41
2024-03-07T13:00:21.758Z,101732.94
2024-03-07T13:02:49.764Z,101732.44
2024-03-07T13:05:22.755Z,101723.69
2024-03-07T13:07:50.182Z,101726.78
2024-03-07T13:10:17.404Z,101728.47
2024-03-07T13:12:46.991Z,101718.53
2024-03-07T13:15:14.137Z,101711.69
2024-03-07T13:17:41.616Z,101707.28
2024-03-07T13:20:14.097Z,101697.38
2024-03-07T13:22:44.903Z,101700.63
2024-03-07T13:25:15.102Z,101697.13
2024-03-07T13:27:45.209Z,101702.34
2024-03-07T13:30:17.181Z,101697.13
2024-03-07T13:32:46.149Z,101696.66
2024-03-07T13:35:13.343Z,101700.78
2024-03-07T13:37:40.261Z,101698.38
2024-03-07T13:40:24.252Z,101700.09
2024-03-07T13:42:53.132Z,101702.09
2024-03-07T13:45:22.409Z,101699.06
2024-03-07T13:47:49.934Z,101696.34
2024-03-07T13:50:31.043Z,101692.41
2024-03-07T13:53:19.563Z,101693.84
2024-03-07T13:55:56.480Z,101692.34
2024-03-07T13:58:32.824Z,101692.16
2024-03-07T14:01:22.235Z,101686.81
2024-03-07T14:04:02.409Z,101687.72
2024-03-07T14:06:47.662Z,101685.88
2024-03-07T14:09:37.697Z,101683.53
2024-03-07T14:12:26.423Z,101685.38
2024-03-07T14:15:32.589Z,101681.13
2024-03-07T14:18:27.632Z,101674.81
2024-03-07T14:21:12.398Z,101669.00
2024-03-07T14:24:01.700Z,101672.59
2024-03-07T14:26:47.789Z,101670.03
2024-03-07T14:29:28.700Z,101678.69
2024-03-07T14:31:55.593Z,101675.94
2024-03-07T14:34:35.129Z,101669.84
2024-03-07T14:37:19.043Z,101670.38
2024-03-07T14:39:49.575Z,101665.09
2024-03-07T14:42:17.030Z,101675.06
2024-03-07T14:44:49.737Z,101668.53
2024-03-07T14:47:20.788Z,101665.75
2024-03-07T14:49:47.790Z,101652.13
2024-03-07T14:52:14.716Z,101655.53
2024-03-07T14:54:42.035Z,101652.69
2024-03-07T14:57:11.728Z,101651.66
2024-03-07T14:59:39.403Z,101648.25
2024-03-07T15:02:12.159Z,101644.50
2024-03-07T15:04:41.129Z,101649.19
2024-03-07T15:07:11.025Z,101646.31
2024-03-07T15:09:39.647Z,101650.34
2024-03-07T15:12:08.491Z,101642.69
2024-03-07T15:14:38.859Z,101644.72
2024-03-07T15:17:08.099Z,101646.50
2024-03-07T15:19:36.518Z,101653.16
2024-03-07T15:22:04.704Z,101650.66
2024-03-07T15:24:31.904Z,101645.56
2024-03-07T15:26:59.105Z,101643.56
2024-03-07T15:29:26.281Z,101644.09
2024-03-07T15:31:53.515Z,101646.19
2024-03-07T15:34:22.364Z,101637.56
2024-03-07T15:37:00.014Z,101639.44
2024-03-07T15:39:31.573Z,101644.44
2024-03-07T15:42:00.786Z,101634.25
2024-03-07T15:44:27.930Z,101628.06
2024-03-07T15:46:55.297Z,101626.16
2024-03-07T15:49:22.708Z,101628.41
2024-03-07T15:51:49.565Z,101633.81
2024-03-07T15:54:19.567Z,101637.09
2024-03-07T15:56:47.349Z,101638.72
2024-03-07T15:59:14.773Z,101635.22
2024-03-07T16:01:42.421Z,101628.25
2024-03-07T16:04:09.566Z,101634.09
2024-03-07T16:06:36.664Z,101640.88
2024-03-07T16:09:03.688Z,101637.38
2024-03-07T16:11:31.228Z,101631.09
2024-03-07T16:13:58.799Z,101621.69
2024-03-07T16:16:25.886Z,101627.06
2024-03-07T16:18:53.868Z,101629.38
2024-03-07T16:21:21.070Z,101626.75
2024-03-07T16:23:48.116Z,101632.44
2024-03-07T16:26:18.193Z,101630.75
2024-03-07T16:28:45.224Z,101629.16
2024-03-07T16:31:12.424Z,101635.41
2024-03-07T16:33:39.398Z,101624.22
2024-03-07T16:36:06.654Z,101628.06
2024-03-07T16:38:36.026Z,101626.00
2024-03-07T16:41:03.092Z,101624.66
2024-03-07T16:43:30.041Z,101628.75
2024-03-07T16:45:57.080Z,101622.75
2024-03-07T16:48:24.181Z,101632.81
2024-03-07T16:50:53.353Z,101633.25
2024-03-07T16:53:20.279Z,101634.97
2024-03-07T16:55:49.794Z,101645.84
2024-03-07T16:58:17.756Z,101634.97
2024-03-07T17:00:45.286Z,101640.47
2024-03-07T17:03:15.108Z,101642.28
2024-03-07T17:05:44.315Z,101644.16
2024-03-07T17:08:17.932Z,101649.03
2024-03-07T17:10:46.481Z,101647.56
2024-03-07T17:13:15.714Z,101644.91
2024-03-07T17:15:44.640Z,101649.56
2024-03-07T17:18:13.528Z,101643.84
2024-03-07T17:20:42.087Z,101649.94
2024-03-07T17:23:10.120Z,101647.63
2024-03-07T17:25:37.746Z,101639.97
2024-03-07T17:28:05.568Z,101641.38
2024-03-07T17:30:36.964Z,101643.00
2024-03-07T17:33:07.602Z,101650.25
2024-03-07T17:35:38.328Z,101645.38
2024-03-07T17:38:05.792Z,101642.88
2024-03-07T17:40:34.909Z,101643.84
2024-03-07T17:43:06.324Z,101642.50
2024-03-07T17:45:38.204Z,101647.72
2024-03-07T17:48:08.060Z,101648.25
2024-03-07T17:50:37.045Z,101653.47
2024-03-07T17:53:10.475Z,101652.91
2024-03-07T17:55:43.146Z,101658.97
2024-03-07T17:58:12.498Z,101668.28
2024-03-07T18:00:44.465Z,101654.56
2024-03-07T18:03:12.330Z,101664.25
2024-03-07T18:05:43.028Z,101666.03
2024-03-07T18:10:52.006Z,101658.41
2024-03-07T18:13:22.126Z,101657.78
2024-03-07T18:15:50.641Z,101657.13
2024-03-07T18:18:18.730Z,101663.53
2024-03-07T18:20:47.168Z,101659.72
2024-03-07T18:23:15.491Z,101661.22
2024-03-07T18:25:43.152Z,101663.34
2024-03-07T18:28:11.043Z,101668.81
2024-03-07T18:30:38.408Z,101661.78
2024-03-07T18:33:06.046Z,101660.03
2024-03-07T18:35:34.878Z,101652.16
2024-03-07T18:38:03.062Z,101667.84
2024-03-07T18:40:30.621Z,101657.53
2024-03-07T18:42:58.234Z,101664.75
2024-03-07T18:45:27.953Z,101657.94
2024-03-07T18:47:55.509Z,101658.81
2024-03-07T18:50:27.531Z,101666.19
2024-03-07T18:52:57.218Z,101665.25
2024-03-07T18:55:30.692Z,101664.81
2024-03-07T18:58:04.189Z,101672.59
2024-03-07T19:00:38.465Z,101670.25
2024-03-07T19:03:09.974Z,101671.47
2024-03-07T19:05:43.683Z,101668.94
2024-03-07T19:08:23.739Z,101668.88
2024-03-07T19:10:54.700Z,101664.63
2024-03-07T19:13:22.153Z,101666.44
2024-03-07T19:15:50.647Z,101666.47
2024-03-07T19:18:18.644Z,101667.28
2024-03-07T19:20:47.130Z,101669.28
2024-03-07T19:23:14.758Z,101666.69
2024-03-07T19:25:42.374Z,101667.66
2024-03-07T19:28:14.729Z,101665.28
2024-03-07T19:30:45.835Z,101667.53
2024-03-07T19:33:17.161Z,101661.34
2024-03-07T19:35:58.236Z,101666.69
2024-03-07T19:38:25.677Z,101666.56
2024-03-07T19:40:53.452Z,101660.13
2024-03-07T19:43:26.307Z,101663.63
2024-03-07T19:45:54.255Z,101672.47
2024-03-07T19:48:26.917Z,101665.19
2024-03-07T19:50:56.959Z,101668.13
2024-03-07T19:53:24.384Z,101661.06
2024-03-07T19:55:51.504Z,101676.22
2024-03-07T19:58:20.705Z,101680.50
2024-03-07T20:00:49.964Z,101680.69
2024-03-07T20:03:24.050Z,101675.81
2024-03-07T20:05:53.869Z,101679.22
2024-03-07T20:08:22.763Z,101673.84
2024-03-07T20:10:51.954Z,101671.25
2024-03-07T20:13:21.065Z,101672.25
2024-03-07T20:15:48.171Z,101669.66
2024-03-07T20:18:15.798Z,101673.28
2024-03-07T20:20:47.701Z,101671.66
2024-03-07T20:23:15.537Z,101666.94
2024-03-07T20:25:43.589Z,101673.22
2024-03-07T20:28:10.784Z,101670.56
2024-03-07T20:30:38.990Z,101676.97
2024-03-07T20:33:07.009Z,101666.59
2024-03-07T20:35:35.329Z,101662.50
2024-03-07T20:38:06.585Z,101667.53
2024-03-07T20:40:33.771Z,101664.34
2024-03-07T20:43:00.951Z,101659.66
2024-03-07T20:45:28.106Z,101666.03
2024-03-07T20:47:55.409Z,101659.69
2024-03-07T20:50:25.839Z,101654.41
2024-03-07T20:52:54.755Z,101656.25
2024-03-07T20:55:24.559Z,101667.91
2024-03-07T20:57:52.188Z,101668.03
2024-03-07T21:00:32.526Z,101661.91
2024-03-07T21:02:59.807Z,101666.25
2024-03-07T21:05:27.423Z,101662.81
2024-03-07T21:07:54.917Z,101668.13
2024-03-07T21:10:25.927Z,101667.44
2024-03-07T21:12:54.246Z,101664.88
2024-03-07T21:15:21.620Z,101666.72
2024-03-07T21:17:49.217Z,101664.84
2024-03-07T21:20:20.514Z,101663.91
2024-03-07T21:22:49.154Z,101657.88
2024-03-07T21:25:18.540Z,101659.66
2024-03-07T21:27:50.376Z,101661.25
2024-03-07T21:30:17.954Z,101653.59
2024-03-07T21:32:45.968Z,101653.47
2024-03-07T21:35:13.350Z,101648.44
2024-03-07T21:37:44.516Z,101649.19
2024-03-07T21:40:17.913Z,101643.97
2024-03-07T21:42:51.927Z,101645.81
2024-03-07T21:45:19.700Z,101648.53
2024-03-07T21:47:47.861Z,101644.13
2024-03-07T21:50:16.823Z,101636.19
2024-03-07T21:52:46.206Z,101636.31
2024-03-07T21:55:13.976Z,101639.00
2024-03-07T21:57:43.934Z,101641.59
2024-03-07T22:00:17.757Z,101642.63
2024-03-07T22:02:57.549Z,101643.53
2024-03-07T22:05:29.681Z,101637.56
2024-03-07T22:07:57.607Z,101641.34
2024-03-07T22:10:24.530Z,101632.72
2024-03-07T22:12:54.058Z,101624.16
2024-03-07T22:15:24.062Z,101628.63
2024-03-07T22:17:54.600Z,101637.28
2024-03-07T22:20:24.330Z,101634.06
2024-03-07T22:22:52.841Z,101627.88
2024-03-07T22:25:23.286Z,101640.09
2024-03-07T22:27:51.158Z,101630.34
2024-03-07T22:30:23.285Z,101632.97
2024-03-07T22:32:51.992Z,101631.41
2024-03-07T22:35:19.289Z,101632.44
2024-03-07T22:37:49.477Z,101629.09
2024-03-07T22:40:16.931Z,101626.81
2024-03-07T22:42:46.913Z,101629.47
2024-03-07T22:45:15.781Z,101619.13
2024-03-07T22:47:43.618Z,101624.50
2024-03-07T22:50:18.303Z,101623.66
2024-03-07T22:52:53.937Z,101621.09
2024-03-07T22:55:21.011Z,101621.16
2024-03-07T22:57:47.861Z,101616.00
2024-03-07T23:00:25.530Z,101615.06
2024-03-07T23:02:53.195Z,101623.84
2024-03-07T23:05:23.022Z,101616.81
2024-03-07T23:07:51.624Z,101616.00
2024-03-07T23:10:21.319Z,101611.00
2024-03-07T23:12:51.038Z,101606.97
2024-03-07T23:15:18.478Z,101611.31
2024-03-07T23:17:46.442Z,101609.66
2024-03-07T23:20:23.837Z,101614.25
2024-03-07T23:22:58.669Z,101611.66
2024-03-07T23:25:27.149Z,101608.13
2024-03-07T23:27:55.750Z,101607.38
2024-03-07T23:30:24.683Z,101603.06
2024-03-07T23:32:54.007Z,101605.66
2024-03-07T23:35:21.658Z,101606.59
2024-03-07T23:37:49.371Z,101597.78
2024-03-07T23:40:16.526Z,101596.81
2024-03-07T23:42:44.349Z,101596.88
2024-03-07T23:45:14.133Z,101594.28
2024-03-07T23:47:44.923Z,101581.34
2024-03-07T23:50:13.323Z,101592.88
2024-03-07T23:52:46.481Z,101595.41
2024-03-07T23:55:17.558Z,101583.84
2024-03-07T23:57:45.708Z,101589.91
